sensor_id;sensor_type;location;lat;lon;timestamp;P1;durP1;ratioP1;P2;durP2;ratioP2
1887;SDS011;944;51.574;6.980;2023-07-22T00:00:20;16.40;;;9.13;;
1887;SDS011;944;51.574;6.980;2023-07-22T00:02:52;10.30;;;8.40;;
1887;SDS011;944;51.574;6.980;2023-07-22T00:05:37;24.67;;;8.97;;
1887;SDS011;944;51.574;6.980;2023-07-22T00:08:16;11.90;;;7.80;;
1887;SDS011;944;51.574;6.980;2023-07-22T00:10:56;12.97;;;8.43;;
1887;SDS011;944;51.574;6.980;2023-07-22T00:13:37;16.63;;;9.33;;
1887;SDS011;944;51.574;6.980;2023-07-22T00:16:11;16.20;;;9.60;;
1887;SDS011;944;51.574;6.980;2023-07-22T00:18:44;15.60;;;9.30;;
1887;SDS011;944;51.574;6.980;2023-07-22T00:21:20;16.50;;;8.90;;
1887;SDS011;944;51.574;6.980;2023-07-22T00:24:00;13.83;;;8.70;;
1887;SDS011;944;51.574;6.980;2023-07-22T00:26:32;16.60;;;9.50;;
1887;SDS011;944;51.574;6.980;2023-07-22T00:29:06;12.57;;;8.63;;
1887;SDS011;944;51.574;6.980;2023-07-22T00:31:45;15.07;;;9.07;;
1887;SDS011;944;51.574;6.980;2023-07-22T00:34:18;12.50;;;8.33;;
1887;SDS011;944;51.574;6.980;2023-07-22T00:36:58;12.27;;;9.60;;
1887;SDS011;944;51.574;6.980;2023-07-22T00:39:31;15.90;;;9.90;;
1887;SDS011;944;51.574;6.980;2023-07-22T00:42:02;12.47;;;9.37;;
1887;SDS011;944;51.574;6.980;2023-07-22T00:44:43;19.17;;;9.93;;
1887;SDS011;944;51.574;6.980;2023-07-22T00:47:14;13.27;;;9.70;;
1887;SDS011;944;51.574;6.980;2023-07-22T00:49:53;19.90;;;8.80;;
1887;SDS011;944;51.574;6.980;2023-07-22T00:52:26;13.93;;;9.47;;
1887;SDS011;944;51.574;6.980;2023-07-22T00:55:03;12.13;;;9.00;;
1887;SDS011;944;51.574;6.980;2023-07-22T00:57:39;17.23;;;8.70;;
1887;SDS011;944;51.574;6.980;2023-07-22T01:00:18;18.50;;;9.37;;
1887;SDS011;944;51.574;6.980;2023-07-22T01:02:49;11.13;;;8.50;;
1887;SDS011;944;51.574;6.980;2023-07-22T01:05:25;20.93;;;9.40;;
1887;SDS011;944;51.574;6.980;2023-07-22T01:07:59;14.03;;;9.30;;
1887;SDS011;944;51.574;6.980;2023-07-22T01:10:30;14.70;;;9.83;;
1887;SDS011;944;51.574;6.980;2023-07-22T01:13:06;12.50;;;8.80;;
1887;SDS011;944;51.574;6.980;2023-07-22T01:15:42;19.83;;;9.00;;
1887;SDS011;944;51.574;6.980;2023-07-22T01:18:23;13.30;;;9.30;;
1887;SDS011;944;51.574;6.980;2023-07-22T01:20:56;19.77;;;9.90;;
1887;SDS011;944;51.574;6.980;2023-07-22T01:23:28;14.73;;;9.00;;
1887;SDS011;944;51.574;6.980;2023-07-22T01:26:03;12.33;;;8.80;;
1887;SDS011;944;51.574;6.980;2023-07-22T01:28:36;10.80;;;8.77;;
1887;SDS011;944;51.574;6.980;2023-07-22T01:31:08;13.30;;;8.83;;
1887;SDS011;944;51.574;6.980;2023-07-22T01:33:41;12.90;;;8.70;;
1887;SDS011;944;51.574;6.980;2023-07-22T01:36:13;14.33;;;8.07;;
1887;SDS011;944;51.574;6.980;2023-07-22T01:38:47;13.70;;;8.13;;
1887;SDS011;944;51.574;6.980;2023-07-22T01:41:20;14.33;;;8.37;;
1887;SDS011;944;51.574;6.980;2023-07-22T01:43:50;19.03;;;8.50;;
1887;SDS011;944;51.574;6.980;2023-07-22T01:46:30;10.77;;;8.50;;
1887;SDS011;944;51.574;6.980;2023-07-22T01:49:05;16.63;;;8.63;;
1887;SDS011;944;51.574;6.980;2023-07-22T01:51:37;13.13;;;8.33;;
1887;SDS011;944;51.574;6.980;2023-07-22T01:54:09;19.53;;;8.70;;
1887;SDS011;944;51.574;6.980;2023-07-22T01:56:37;16.30;;;8.70;;
1887;SDS011;944;51.574;6.980;2023-07-22T01:59:19;18.87;;;9.10;;
1887;SDS011;944;51.574;6.980;2023-07-22T02:01:48;11.33;;;8.40;;
1887;SDS011;944;51.574;6.980;2023-07-22T02:04:29;13.20;;;8.33;;
1887;SDS011;944;51.574;6.980;2023-07-22T02:07:03;12.10;;;8.77;;
1887;SDS011;944;51.574;6.980;2023-07-22T02:09:33;13.20;;;8.43;;
1887;SDS011;944;51.574;6.980;2023-07-22T02:12:07;13.63;;;8.90;;
1887;SDS011;944;51.574;6.980;2023-07-22T02:14:45;16.43;;;8.50;;
1887;SDS011;944;51.574;6.980;2023-07-22T02:17:12;16.77;;;8.33;;
1887;SDS011;944;51.574;6.980;2023-07-22T02:19:45;17.30;;;9.17;;
1887;SDS011;944;51.574;6.980;2023-07-22T02:22:21;12.10;;;8.60;;
1887;SDS011;944;51.574;6.980;2023-07-22T02:28:03;12.20;;;8.77;;
1887;SDS011;944;51.574;6.980;2023-07-22T02:30:47;14.80;;;8.37;;
1887;SDS011;944;51.574;6.980;2023-07-22T02:33:45;11.57;;;8.37;;
1887;SDS011;944;51.574;6.980;2023-07-22T02:36:45;14.40;;;8.87;;
1887;SDS011;944;51.574;6.980;2023-07-22T02:39:42;11.90;;;8.07;;
1887;SDS011;944;51.574;6.980;2023-07-22T02:42:35;14.83;;;8.90;;
1887;SDS011;944;51.574;6.980;2023-07-22T02:45:07;11.70;;;8.70;;
1887;SDS011;944;51.574;6.980;2023-07-22T02:47:37;11.60;;;8.40;;
1887;SDS011;944;51.574;6.980;2023-07-22T02:50:10;13.37;;;8.67;;
1887;SDS011;944;51.574;6.980;2023-07-22T02:52:50;13.47;;;8.17;;
1887;SDS011;944;51.574;6.980;2023-07-22T02:55:31;14.07;;;8.63;;
1887;SDS011;944;51.574;6.980;2023-07-22T02:58:05;15.23;;;8.30;;
1887;SDS011;944;51.574;6.980;2023-07-22T03:00:33;13.40;;;8.53;;
1887;SDS011;944;51.574;6.980;2023-07-22T03:03:03;11.37;;;9.07;;
1887;SDS011;944;51.574;6.980;2023-07-22T03:05:46;13.80;;;8.87;;
1887;SDS011;944;51.574;6.980;2023-07-22T03:08:24;13.33;;;8.87;;
1887;SDS011;944;51.574;6.980;2023-07-22T03:10:55;18.03;;;9.50;;
1887;SDS011;944;51.574;6.980;2023-07-22T03:13:30;13.23;;;9.27;;
1887;SDS011;944;51.574;6.980;2023-07-22T03:16:04;12.40;;;8.80;;
1887;SDS011;944;51.574;6.980;2023-07-22T03:18:48;17.43;;;9.13;;
1887;SDS011;944;51.574;6.980;2023-07-22T03:21:18;16.50;;;8.47;;
1887;SDS011;944;51.574;6.980;2023-07-22T03:23:54;14.93;;;8.00;;
1887;SDS011;944;51.574;6.980;2023-07-22T03:26:29;14.27;;;8.93;;
1887;SDS011;944;51.574;6.980;2023-07-22T03:29:04;10.23;;;8.40;;
1887;SDS011;944;51.574;6.980;2023-07-22T03:31:34;15.60;;;8.90;;
1887;SDS011;944;51.574;6.980;2023-07-22T03:34:05;11.90;;;8.40;;
1887;SDS011;944;51.574;6.980;2023-07-22T03:36:37;15.40;;;8.40;;
1887;SDS011;944;51.574;6.980;2023-07-22T03:39:04;11.87;;;8.17;;
1887;SDS011;944;51.574;6.980;2023-07-22T03:41:38;19.07;;;8.13;;
1887;SDS011;944;51.574;6.980;2023-07-22T03:44:09;10.77;;;7.70;;
1887;SDS011;944;51.574;6.980;2023-07-22T03:46:41;12.47;;;8.13;;
1887;SDS011;944;51.574;6.980;2023-07-22T03:49:22;11.03;;;7.77;;
1887;SDS011;944;51.574;6.980;2023-07-22T03:51:54;12.20;;;7.90;;
1887;SDS011;944;51.574;6.980;2023-07-22T03:54:25;14.27;;;8.10;;
1887;SDS011;944;51.574;6.980;2023-07-22T03:57:02;14.87;;;7.93;;
1887;SDS011;944;51.574;6.980;2023-07-22T03:59:34;13.87;;;7.60;;
1887;SDS011;944;51.574;6.980;2023-07-22T04:02:09;12.20;;;8.07;;
1887;SDS011;944;51.574;6.980;2023-07-22T04:04:41;12.93;;;7.97;;
1887;SDS011;944;51.574;6.980;2023-07-22T04:07:11;15.40;;;8.20;;
1887;SDS011;944;51.574;6.980;2023-07-22T04:09:43;16.43;;;7.47;;
1887;SDS011;944;51.574;6.980;2023-07-22T04:12:17;13.40;;;8.50;;
1887;SDS011;944;51.574;6.980;2023-07-22T04:14:51;14.40;;;8.47;;
1887;SDS011;944;51.574;6.980;2023-07-22T04:17:33;24.50;;;8.20;;
1887;SDS011;944;51.574;6.980;2023-07-22T04:20:02;18.23;;;8.30;;
1887;SDS011;944;51.574;6.980;2023-07-22T04:22:35;20.60;;;8.20;;
1887;SDS011;944;51.574;6.980;2023-07-22T04:25:07;10.93;;;7.67;;
1887;SDS011;944;51.574;6.980;2023-07-22T04:27:35;13.07;;;8.37;;
1887;SDS011;944;51.574;6.980;2023-07-22T04:30:06;20.07;;;8.90;;
1887;SDS011;944;51.574;6.980;2023-07-22T04:32:35;11.17;;;7.43;;
1887;SDS011;944;51.574;6.980;2023-07-22T04:35:03;13.57;;;8.33;;
1887;SDS011;944;51.574;6.980;2023-07-22T04:37:34;12.83;;;7.20;;
1887;SDS011;944;51.574;6.980;2023-07-22T04:40:07;15.87;;;8.00;;
1887;SDS011;944;51.574;6.980;2023-07-22T04:42:39;14.13;;;8.20;;
1887;SDS011;944;51.574;6.980;2023-07-22T04:45:09;13.90;;;8.17;;
1887;SDS011;944;51.574;6.980;2023-07-22T04:47:37;11.53;;;7.33;;
1887;SDS011;944;51.574;6.980;2023-07-22T04:50:07;20.23;;;8.20;;
1887;SDS011;944;51.574;6.980;2023-07-22T04:52:35;12.50;;;7.90;;
1887;SDS011;944;51.574;6.980;2023-07-22T04:55:03;20.63;;;8.90;;
1887;SDS011;944;51.574;6.980;2023-07-22T04:57:43;12.10;;;7.60;;
1887;SDS011;944;51.574;6.980;2023-07-22T05:00:14;12.90;;;8.40;;
1887;SDS011;944;51.574;6.980;2023-07-22T05:02:44;11.93;;;8.60;;
1887;SDS011;944;51.574;6.980;2023-07-22T05:05:16;16.47;;;9.23;;
1887;SDS011;944;51.574;6.980;2023-07-22T05:07:46;14.37;;;8.80;;
1887;SDS011;944;51.574;6.980;2023-07-22T05:10:15;16.80;;;10.00;;
1887;SDS011;944;51.574;6.980;2023-07-22T05:12:42;13.20;;;9.37;;
1887;SDS011;944;51.574;6.980;2023-07-22T05:15:09;18.30;;;9.87;;
1887;SDS011;944;51.574;6.980;2023-07-22T05:17:39;15.70;;;8.20;;
1887;SDS011;944;51.574;6.980;2023-07-22T05:20:07;16.60;;;8.60;;
1887;SDS011;944;51.574;6.980;2023-07-22T05:22:36;13.67;;;7.73;;
1887;SDS011;944;51.574;6.980;2023-07-22T05:25:06;24.23;;;9.33;;
1887;SDS011;944;51.574;6.980;2023-07-22T05:27:34;16.43;;;8.40;;
1887;SDS011;944;51.574;6.980;2023-07-22T05:30:02;12.53;;;8.00;;
1887;SDS011;944;51.574;6.980;2023-07-22T05:32:34;15.63;;;8.60;;
1887;SDS011;944;51.574;6.980;2023-07-22T05:35:08;17.10;;;8.20;;
1887;SDS011;944;51.574;6.980;2023-07-22T05:37:35;17.00;;;9.10;;
1887;SDS011;944;51.574;6.980;2023-07-22T05:40:02;14.70;;;8.10;;
1887;SDS011;944;51.574;6.980;2023-07-22T05:42:33;11.93;;;7.73;;
1887;SDS011;944;51.574;6.980;2023-07-22T05:45:01;12.67;;;7.83;;
1887;SDS011;944;51.574;6.980;2023-07-22T05:47:29;10.80;;;7.53;;
1887;SDS011;944;51.574;6.980;2023-07-22T05:49:56;15.40;;;7.63;;
1887;SDS011;944;51.574;6.980;2023-07-22T05:52:25;11.67;;;7.67;;
1887;SDS011;944;51.574;6.980;2023-07-22T05:54:53;11.90;;;7.23;;
1887;SDS011;944;51.574;6.980;2023-07-22T05:57:22;14.23;;;8.10;;
1887;SDS011;944;51.574;6.980;2023-07-22T05:59:53;19.90;;;7.87;;
1887;SDS011;944;51.574;6.980;2023-07-22T06:02:28;17.83;;;8.40;;
1887;SDS011;944;51.574;6.980;2023-07-22T06:04:55;12.00;;;7.80;;
1887;SDS011;944;51.574;6.980;2023-07-22T06:07:29;12.93;;;7.20;;
1887;SDS011;944;51.574;6.980;2023-07-22T06:09:58;12.90;;;7.20;;
1887;SDS011;944;51.574;6.980;2023-07-22T06:12:36;10.27;;;7.20;;
1887;SDS011;944;51.574;6.980;2023-07-22T06:58:01;18.97;;;9.57;;
1887;SDS011;944;51.574;6.980;2023-07-22T07:00:32;15.00;;;9.50;;
1887;SDS011;944;51.574;6.980;2023-07-22T07:03:06;18.53;;;8.20;;
1887;SDS011;944;51.574;6.980;2023-07-22T07:05:51;16.10;;;8.70;;
1887;SDS011;944;51.574;6.980;2023-07-22T07:08:39;12.33;;;8.57;;
1887;SDS011;944;51.574;6.980;2023-07-22T07:11:07;13.43;;;8.80;;
1887;SDS011;944;51.574;6.980;2023-07-22T07:17:22;14.50;;;8.20;;
1887;SDS011;944;51.574;6.980;2023-07-22T07:19:52;12.60;;;8.80;;
1887;SDS011;944;51.574;6.980;2023-07-22T07:22:19;15.00;;;8.60;;
1887;SDS011;944;51.574;6.980;2023-07-22T07:32:07;12.17;;;7.50;;
1887;SDS011;944;51.574;6.980;2023-07-22T07:34:35;12.70;;;8.23;;
1887;SDS011;944;51.574;6.980;2023-07-22T07:37:07;9.47;;;6.83;;
1887;SDS011;944;51.574;6.980;2023-07-22T07:39:34;13.30;;;7.60;;
1887;SDS011;944;51.574;6.980;2023-07-22T07:42:01;11.80;;;7.27;;
1887;SDS011;944;51.574;6.980;2023-07-22T07:44:28;19.60;;;7.47;;
1887;SDS011;944;51.574;6.980;2023-07-22T07:46:55;14.80;;;7.63;;
1887;SDS011;944;51.574;6.980;2023-07-22T07:49:27;15.30;;;7.90;;
1887;SDS011;944;51.574;6.980;2023-07-22T07:51:55;9.30;;;7.30;;
1887;SDS011;944;51.574;6.980;2023-07-22T07:54:22;12.43;;;6.97;;
1887;SDS011;944;51.574;6.980;2023-07-22T07:56:49;11.63;;;7.70;;
1887;SDS011;944;51.574;6.980;2023-07-22T07:59:16;12.77;;;7.53;;
1887;SDS011;944;51.574;6.980;2023-07-22T08:01:44;18.63;;;7.47;;
1887;SDS011;944;51.574;6.980;2023-07-22T08:04:12;10.30;;;6.80;;
1887;SDS011;944;51.574;6.980;2023-07-22T08:06:40;9.10;;;7.30;;
1887;SDS011;944;51.574;6.980;2023-07-22T08:09:07;16.90;;;7.70;;
1887;SDS011;944;51.574;6.980;2023-07-22T08:11:41;11.30;;;7.47;;
1887;SDS011;944;51.574;6.980;2023-07-22T08:14:11;17.47;;;7.63;;
1887;SDS011;944;51.574;6.980;2023-07-22T08:16:39;13.97;;;7.73;;
1887;SDS011;944;51.574;6.980;2023-07-22T08:19:06;11.50;;;7.83;;
1887;SDS011;944;51.574;6.980;2023-07-22T08:21:33;12.50;;;8.40;;
1887;SDS011;944;51.574;6.980;2023-07-22T08:24:04;14.20;;;7.27;;
1887;SDS011;944;51.574;6.980;2023-07-22T08:26:32;10.60;;;7.20;;
1887;SDS011;944;51.574;6.980;2023-07-22T08:28:59;15.63;;;7.30;;
1887;SDS011;944;51.574;6.980;2023-07-22T08:31:26;9.40;;;7.17;;
1887;SDS011;944;51.574;6.980;2023-07-22T08:33:55;12.93;;;8.23;;
1887;SDS011;944;51.574;6.980;2023-07-22T08:36:23;15.90;;;7.63;;
1887;SDS011;944;51.574;6.980;2023-07-22T08:38:50;13.37;;;7.67;;
1887;SDS011;944;51.574;6.980;2023-07-22T08:41:18;14.60;;;7.30;;
1887;SDS011;944;51.574;6.980;2023-07-22T08:43:47;12.47;;;8.23;;
1887;SDS011;944;51.574;6.980;2023-07-22T08:50:05;9.07;;;6.07;;
1887;SDS011;944;51.574;6.980;2023-07-22T08:52:34;12.73;;;6.57;;
1887;SDS011;944;51.574;6.980;2023-07-22T08:55:04;9.90;;;5.60;;
1887;SDS011;944;51.574;6.980;2023-07-22T08:57:33;14.00;;;5.87;;
1887;SDS011;944;51.574;6.980;2023-07-22T09:00:02;14.97;;;6.90;;
1887;SDS011;944;51.574;6.980;2023-07-22T09:02:31;13.00;;;6.60;;
1887;SDS011;944;51.574;6.980;2023-07-22T09:05:00;9.50;;;6.23;;
1887;SDS011;944;51.574;6.980;2023-07-22T09:07:27;15.30;;;7.50;;
1887;SDS011;944;51.574;6.980;2023-07-22T09:09:55;11.53;;;6.77;;
1887;SDS011;944;51.574;6.980;2023-07-22T09:12:23;10.00;;;6.80;;
1887;SDS011;944;51.574;6.980;2023-07-22T09:14:54;11.63;;;6.87;;
1887;SDS011;944;51.574;6.980;2023-07-22T09:17:23;8.97;;;7.00;;
1887;SDS011;944;51.574;6.980;2023-07-22T09:19:51;11.60;;;6.47;;
1887;SDS011;944;51.574;6.980;2023-07-22T09:22:24;9.70;;;6.70;;
1887;SDS011;944;51.574;6.980;2023-07-22T09:28:10;12.33;;;6.20;;
1887;SDS011;944;51.574;6.980;2023-07-22T09:34:20;11.83;;;6.70;;
1887;SDS011;944;51.574;6.980;2023-07-22T09:36:51;9.47;;;5.63;;
1887;SDS011;944;51.574;6.980;2023-07-22T09:39:18;9.53;;;5.33;;
1887;SDS011;944;51.574;6.980;2023-07-22T09:41:48;7.77;;;5.07;;
1887;SDS011;944;51.574;6.980;2023-07-22T09:44:17;11.03;;;5.33;;
1887;SDS011;944;51.574;6.980;2023-07-22T09:50:26;12.60;;;4.70;;
1887;SDS011;944;51.574;6.980;2023-07-22T09:52:54;8.83;;;5.10;;
1887;SDS011;944;51.574;6.980;2023-07-22T09:55:23;8.53;;;5.00;;
1887;SDS011;944;51.574;6.980;2023-07-22T09:57:59;8.63;;;5.40;;
1887;SDS011;944;51.574;6.980;2023-07-22T10:00:28;6.27;;;4.50;;
1887;SDS011;944;51.574;6.980;2023-07-22T11:10:19;7.50;;;3.73;;
1887;SDS011;944;51.574;6.980;2023-07-22T11:20:17;4.40;;;3.17;;
1887;SDS011;944;51.574;6.980;2023-07-22T11:22:47;6.93;;;3.00;;
1887;SDS011;944;51.574;6.980;2023-07-22T11:25:17;7.80;;;3.07;;
1887;SDS011;944;51.574;6.980;2023-07-22T11:27:45;5.10;;;2.77;;
1887;SDS011;944;51.574;6.980;2023-07-22T11:30:12;9.83;;;3.00;;
1887;SDS011;944;51.574;6.980;2023-07-22T11:32:41;10.07;;;3.40;;
1887;SDS011;944;51.574;6.980;2023-07-22T11:35:09;4.10;;;2.63;;
1887;SDS011;944;51.574;6.980;2023-07-22T11:37:36;3.33;;;2.93;;
1887;SDS011;944;51.574;6.980;2023-07-22T11:40:04;6.70;;;3.13;;
1887;SDS011;944;51.574;6.980;2023-07-22T11:42:34;3.73;;;2.50;;
1887;SDS011;944;51.574;6.980;2023-07-22T11:45:02;4.83;;;2.53;;
1887;SDS011;944;51.574;6.980;2023-07-22T11:47:31;4.23;;;2.50;;
1887;SDS011;944;51.574;6.980;2023-07-22T11:49:58;2.83;;;2.33;;
1887;SDS011;944;51.574;6.980;2023-07-22T11:52:26;4.27;;;2.80;;
1887;SDS011;944;51.574;6.980;2023-07-22T11:58:34;7.07;;;2.70;;
1887;SDS011;944;51.574;6.980;2023-07-22T12:01:03;4.60;;;2.70;;
1887;SDS011;944;51.574;6.980;2023-07-22T12:03:32;5.63;;;2.80;;
1887;SDS011;944;51.574;6.980;2023-07-22T12:06:00;5.43;;;3.00;;
1887;SDS011;944;51.574;6.980;2023-07-22T12:08:28;7.00;;;3.10;;
1887;SDS011;944;51.574;6.980;2023-07-22T12:10:58;7.33;;;2.77;;
1887;SDS011;944;51.574;6.980;2023-07-22T12:13:25;6.57;;;2.63;;
1887;SDS011;944;51.574;6.980;2023-07-22T12:18:42;3.13;;;2.87;;
1887;SDS011;944;51.574;6.980;2023-07-22T12:21:10;2.83;;;2.63;;
1887;SDS011;944;51.574;6.980;2023-07-22T12:23:37;4.53;;;2.77;;
1887;SDS011;944;51.574;6.980;2023-07-22T12:26:04;3.50;;;2.73;;
1887;SDS011;944;51.574;6.980;2023-07-22T12:28:32;4.40;;;3.10;;
1887;SDS011;944;51.574;6.980;2023-07-22T12:30:59;5.00;;;2.50;;
1887;SDS011;944;51.574;6.980;2023-07-22T12:33:28;2.70;;;2.40;;
1887;SDS011;944;51.574;6.980;2023-07-22T12:35:56;2.30;;;2.10;;
1887;SDS011;944;51.574;6.980;2023-07-22T12:38:23;3.60;;;2.37;;
1887;SDS011;944;51.574;6.980;2023-07-22T12:40:51;2.50;;;2.00;;
1887;SDS011;944;51.574;6.980;2023-07-22T12:43:18;4.37;;;2.60;;
1887;SDS011;944;51.574;6.980;2023-07-22T12:45:45;2.03;;;1.83;;
1887;SDS011;944;51.574;6.980;2023-07-22T12:48:12;2.63;;;2.20;;
1887;SDS011;944;51.574;6.980;2023-07-22T12:50:40;2.40;;;2.10;;
1887;SDS011;944;51.574;6.980;2023-07-22T12:53:07;3.23;;;2.30;;
1887;SDS011;944;51.574;6.980;2023-07-22T12:55:34;4.97;;;1.93;;
1887;SDS011;944;51.574;6.980;2023-07-22T12:58:01;11.60;;;2.23;;
1887;SDS011;944;51.574;6.980;2023-07-22T13:00:28;7.40;;;2.27;;
1887;SDS011;944;51.574;6.980;2023-07-22T13:02:55;3.97;;;2.27;;
1887;SDS011;944;51.574;6.980;2023-07-22T13:05:22;2.80;;;1.80;;
1887;SDS011;944;51.574;6.980;2023-07-22T13:07:51;3.73;;;2.47;;
1887;SDS011;944;51.574;6.980;2023-07-22T13:10:18;5.87;;;2.40;;
1887;SDS011;944;51.574;6.980;2023-07-22T13:12:47;3.67;;;2.53;;
1887;SDS011;944;51.574;6.980;2023-07-22T13:15:14;3.30;;;2.27;;
1887;SDS011;944;51.574;6.980;2023-07-22T13:17:41;4.37;;;2.60;;
1887;SDS011;944;51.574;6.980;2023-07-22T13:20:08;2.60;;;2.40;;
1887;SDS011;944;51.574;6.980;2023-07-22T13:26:00;3.43;;;2.50;;
1887;SDS011;944;51.574;6.980;2023-07-22T13:28:41;4.20;;;2.73;;
1887;SDS011;944;51.574;6.980;2023-07-22T13:31:20;3.80;;;3.10;;
1887;SDS011;944;51.574;6.980;2023-07-22T13:34:06;2.60;;;2.40;;
1887;SDS011;944;51.574;6.980;2023-07-22T13:36:50;3.50;;;2.50;;
1887;SDS011;944;51.574;6.980;2023-07-22T13:39:29;12.27;;;4.00;;
1887;SDS011;944;51.574;6.980;2023-07-22T13:42:02;4.80;;;2.77;;
1887;SDS011;944;51.574;6.980;2023-07-22T13:44:38;5.27;;;2.50;;
1887;SDS011;944;51.574;6.980;2023-07-22T13:50:04;6.33;;;2.90;;
1887;SDS011;944;51.574;6.980;2023-07-22T13:52:36;3.80;;;2.70;;
1887;SDS011;944;51.574;6.980;2023-07-22T13:55:04;3.77;;;2.60;;
1887;SDS011;944;51.574;6.980;2023-07-22T13:57:33;3.47;;;2.80;;
1887;SDS011;944;51.574;6.980;2023-07-22T13:59:59;3.40;;;3.03;;
1887;SDS011;944;51.574;6.980;2023-07-22T14:02:30;8.87;;;2.87;;
1887;SDS011;944;51.574;6.980;2023-07-22T14:04:57;4.50;;;2.87;;
1887;SDS011;944;51.574;6.980;2023-07-22T14:07:24;4.93;;;2.87;;
1887;SDS011;944;51.574;6.980;2023-07-22T14:09:51;7.27;;;2.70;;
1887;SDS011;944;51.574;6.980;2023-07-22T14:12:20;4.10;;;2.73;;
1887;SDS011;944;51.574;6.980;2023-07-22T14:14:46;5.37;;;2.70;;
1887;SDS011;944;51.574;6.980;2023-07-22T14:17:13;4.27;;;2.93;;
1887;SDS011;944;51.574;6.980;2023-07-22T14:19:40;3.87;;;2.07;;
1887;SDS011;944;51.574;6.980;2023-07-22T14:22:07;3.80;;;2.50;;
1887;SDS011;944;51.574;6.980;2023-07-22T14:24:34;2.60;;;2.40;;
1887;SDS011;944;51.574;6.980;2023-07-22T14:27:01;3.10;;;2.43;;
1887;SDS011;944;51.574;6.980;2023-07-22T14:29:30;4.40;;;2.83;;
1887;SDS011;944;51.574;6.980;2023-07-22T14:32:00;5.20;;;2.90;;
1887;SDS011;944;51.574;6.980;2023-07-22T14:34:28;3.50;;;2.60;;
1887;SDS011;944;51.574;6.980;2023-07-22T14:36:54;4.40;;;2.80;;
1887;SDS011;944;51.574;6.980;2023-07-22T14:39:21;4.67;;;2.93;;
1887;SDS011;944;51.574;6.980;2023-07-22T14:41:48;5.50;;;2.60;;
1887;SDS011;944;51.574;6.980;2023-07-22T14:44:16;3.00;;;2.57;;
1887;SDS011;944;51.574;6.980;2023-07-22T14:46:45;4.23;;;2.60;;
1887;SDS011;944;51.574;6.980;2023-07-22T14:49:13;4.40;;;2.90;;
1887;SDS011;944;51.574;6.980;2023-07-22T14:51:40;3.40;;;2.10;;
1887;SDS011;944;51.574;6.980;2023-07-22T14:54:07;5.27;;;2.60;;
1887;SDS011;944;51.574;6.980;2023-07-22T14:56:34;3.97;;;2.90;;
1887;SDS011;944;51.574;6.980;2023-07-22T14:59:01;2.43;;;2.23;;
1887;SDS011;944;51.574;6.980;2023-07-22T15:01:35;3.70;;;2.60;;
1887;SDS011;944;51.574;6.980;2023-07-22T15:04:05;3.33;;;2.53;;
1887;SDS011;944;51.574;6.980;2023-07-22T15:06:35;3.10;;;2.80;;
1887;SDS011;944;51.574;6.980;2023-07-22T15:09:07;4.23;;;2.87;;
1887;SDS011;944;51.574;6.980;2023-07-22T15:11:35;4.97;;;2.90;;
1887;SDS011;944;51.574;6.980;2023-07-22T15:14:03;3.57;;;2.83;;
1887;SDS011;944;51.574;6.980;2023-07-22T15:16:31;5.47;;;2.63;;
1887;SDS011;944;51.574;6.980;2023-07-22T15:19:12;4.80;;;2.97;;
1887;SDS011;944;51.574;6.980;2023-07-22T15:21:43;6.20;;;2.93;;
1887;SDS011;944;51.574;6.980;2023-07-22T15:24:13;3.80;;;2.80;;
1887;SDS011;944;51.574;6.980;2023-07-22T15:26:45;3.47;;;2.30;;
1887;SDS011;944;51.574;6.980;2023-07-22T15:29:14;7.17;;;3.03;;
1887;SDS011;944;51.574;6.980;2023-07-22T15:31:43;4.37;;;2.83;;
1887;SDS011;944;51.574;6.980;2023-07-22T15:34:29;5.00;;;3.20;;
1887;SDS011;944;51.574;6.980;2023-07-22T15:36:59;7.63;;;2.80;;
1887;SDS011;944;51.574;6.980;2023-07-22T15:39:29;4.27;;;2.60;;
1887;SDS011;944;51.574;6.980;2023-07-22T15:41:56;5.73;;;2.70;;
1887;SDS011;944;51.574;6.980;2023-07-22T15:44:25;3.47;;;2.70;;
1887;SDS011;944;51.574;6.980;2023-07-22T15:46:53;4.07;;;2.50;;
1887;SDS011;944;51.574;6.980;2023-07-22T15:49:20;3.00;;;2.50;;
1887;SDS011;944;51.574;6.980;2023-07-22T15:51:48;3.70;;;2.40;;
1887;SDS011;944;51.574;6.980;2023-07-22T15:54:15;4.07;;;2.63;;
1887;SDS011;944;51.574;6.980;2023-07-22T15:56:44;3.83;;;2.60;;
1887;SDS011;944;51.574;6.980;2023-07-22T15:59:11;3.60;;;2.40;;
1887;SDS011;944;51.574;6.980;2023-07-22T16:01:38;2.50;;;2.30;;
1887;SDS011;944;51.574;6.980;2023-07-22T16:04:07;4.17;;;2.77;;
1887;SDS011;944;51.574;6.980;2023-07-22T16:06:34;4.30;;;2.23;;
1887;SDS011;944;51.574;6.980;2023-07-22T16:09:02;7.20;;;2.10;;
1887;SDS011;944;51.574;6.980;2023-07-22T16:11:29;4.83;;;1.97;;
1887;SDS011;944;51.574;6.980;2023-07-22T16:13:56;4.60;;;2.30;;
1887;SDS011;944;51.574;6.980;2023-07-22T16:16:23;2.90;;;2.20;;
1887;SDS011;944;51.574;6.980;2023-07-22T16:18:50;3.43;;;2.07;;
1887;SDS011;944;51.574;6.980;2023-07-22T16:21:18;2.50;;;2.00;;
1887;SDS011;944;51.574;6.980;2023-07-22T16:23:45;4.90;;;1.90;;
1887;SDS011;944;51.574;6.980;2023-07-22T16:26:14;5.13;;;2.30;;
1887;SDS011;944;51.574;6.980;2023-07-22T16:28:41;2.03;;;1.83;;
1887;SDS011;944;51.574;6.980;2023-07-22T16:31:09;2.13;;;1.80;;
1887;SDS011;944;51.574;6.980;2023-07-22T16:33:36;5.93;;;2.00;;
1887;SDS011;944;51.574;6.980;2023-07-22T16:36:03;6.37;;;2.43;;
1887;SDS011;944;51.574;6.980;2023-07-22T16:38:31;9.30;;;2.57;;
1887;SDS011;944;51.574;6.980;2023-07-22T16:40:58;10.30;;;2.10;;
1887;SDS011;944;51.574;6.980;2023-07-22T16:43:26;4.90;;;2.67;;
1887;SDS011;944;51.574;6.980;2023-07-22T16:45:53;2.30;;;2.00;;
1887;SDS011;944;51.574;6.980;2023-07-22T16:48:20;3.13;;;2.70;;
1887;SDS011;944;51.574;6.980;2023-07-22T16:50:47;4.13;;;2.27;;
1887;SDS011;944;51.574;6.980;2023-07-22T16:53:14;4.30;;;2.67;;
1887;SDS011;944;51.574;6.980;2023-07-22T16:55:42;5.53;;;2.80;;
1887;SDS011;944;51.574;6.980;2023-07-22T16:58:09;3.43;;;2.63;;
1887;SDS011;944;51.574;6.980;2023-07-22T17:00:39;5.43;;;3.23;;
1887;SDS011;944;51.574;6.980;2023-07-22T17:03:06;4.80;;;3.57;;
1887;SDS011;944;51.574;6.980;2023-07-22T17:05:33;6.90;;;3.50;;
1887;SDS011;944;51.574;6.980;2023-07-22T17:08:00;9.20;;;3.03;;
1887;SDS011;944;51.574;6.980;2023-07-22T17:10:27;4.13;;;3.20;;
1887;SDS011;944;51.574;6.980;2023-07-22T17:12:54;3.20;;;2.90;;
1887;SDS011;944;51.574;6.980;2023-07-22T17:15:21;3.83;;;2.93;;
1887;SDS011;944;51.574;6.980;2023-07-22T17:17:50;7.07;;;3.30;;
1887;SDS011;944;51.574;6.980;2023-07-22T17:20:17;7.07;;;3.30;;
1887;SDS011;944;51.574;6.980;2023-07-22T17:22:45;6.30;;;3.50;;
1887;SDS011;944;51.574;6.980;2023-07-22T17:25:13;4.57;;;3.20;;
1887;SDS011;944;51.574;6.980;2023-07-22T17:27:40;5.40;;;3.07;;
1887;SDS011;944;51.574;6.980;2023-07-22T17:30:07;6.63;;;3.60;;
1887;SDS011;944;51.574;6.980;2023-07-22T17:32:35;4.43;;;2.50;;
1887;SDS011;944;51.574;6.980;2023-07-22T17:35:04;5.40;;;3.00;;
1887;SDS011;944;51.574;6.980;2023-07-22T17:37:32;4.23;;;3.07;;
1887;SDS011;944;51.574;6.980;2023-07-22T17:40:02;4.23;;;2.70;;
1887;SDS011;944;51.574;6.980;2023-07-22T17:42:30;4.93;;;2.80;;
1887;SDS011;944;51.574;6.980;2023-07-22T17:44:57;3.60;;;2.90;;
1887;SDS011;944;51.574;6.980;2023-07-22T17:47:24;3.23;;;2.93;;
1887;SDS011;944;51.574;6.980;2023-07-22T17:49:51;3.50;;;2.70;;
1887;SDS011;944;51.574;6.980;2023-07-22T17:52:19;10.53;;;7.77;;
1887;SDS011;944;51.574;6.980;2023-07-22T17:54:46;9.23;;;3.00;;
1887;SDS011;944;51.574;6.980;2023-07-22T17:57:21;5.63;;;3.10;;
1887;SDS011;944;51.574;6.980;2023-07-22T17:59:56;8.40;;;4.93;;
1887;SDS011;944;51.574;6.980;2023-07-22T18:02:23;18.93;;;9.67;;
1887;SDS011;944;51.574;6.980;2023-07-22T18:04:51;23.37;;;12.83;;
1887;SDS011;944;51.574;6.980;2023-07-22T18:07:19;12.47;;;6.53;;
1887;SDS011;944;51.574;6.980;2023-07-22T18:09:46;6.17;;;4.20;;
1887;SDS011;944;51.574;6.980;2023-07-22T18:12:13;5.77;;;3.53;;
1887;SDS011;944;51.574;6.980;2023-07-22T18:14:40;7.43;;;3.13;;
1887;SDS011;944;51.574;6.980;2023-07-22T18:17:07;6.73;;;3.40;;
1887;SDS011;944;51.574;6.980;2023-07-22T18:19:34;10.73;;;2.77;;
1887;SDS011;944;51.574;6.980;2023-07-22T18:22:01;4.70;;;2.60;;